sensor_id;sensor_type;location;lat;lon;timestamp;P1;durP1;ratioP1;P2;durP2;ratioP2
64085;SDS011;50333;47.436;21.390;2022-07-09T00:01:24;0.80;;;0.80;;
64085;SDS011;50333;47.436;21.390;2022-07-09T00:03:52;4.05;;;0.70;;
64085;SDS011;50333;47.436;21.390;2022-07-09T00:06:22;0.77;;;0.77;;
64085;SDS011;50333;47.436;21.390;2022-07-09T00:08:50;1.77;;;0.85;;
64085;SDS011;50333;47.436;21.390;2022-07-09T00:11:18;0.50;;;0.50;;
64085;SDS011;50333;47.436;21.390;2022-07-09T00:13:45;0.80;;;0.68;;
64085;SDS011;50333;47.436;21.390;2022-07-09T00:16:13;3.72;;;0.70;;
64085;SDS011;50333;47.436;21.390;2022-07-09T00:18:41;0.70;;;0.70;;
64085;SDS011;50333;47.436;21.390;2022-07-09T00:21:09;0.80;;;0.80;;
64085;SDS011;50333;47.436;21.390;2022-07-09T00:23:37;0.80;;;0.80;;
64085;SDS011;50333;47.436;21.390;2022-07-09T00:26:05;0.82;;;0.82;;
64085;SDS011;50333;47.436;21.390;2022-07-09T00:28:32;1.00;;;0.90;;
64085;SDS011;50333;47.436;21.390;2022-07-09T00:31:00;1.33;;;0.75;;
64085;SDS011;50333;47.436;21.390;2022-07-09T00:33:28;2.30;;;0.90;;
64085;SDS011;50333;47.436;21.390;2022-07-09T00:35:56;2.70;;;1.00;;
64085;SDS011;50333;47.436;21.390;2022-07-09T00:38:24;4.25;;;1.10;;
64085;SDS011;50333;47.436;21.390;2022-07-09T00:40:52;1.05;;;0.82;;
64085;SDS011;50333;47.436;21.390;2022-07-09T00:43:20;1.05;;;0.95;;
64085;SDS011;50333;47.436;21.390;2022-07-09T00:45:49;1.70;;;0.88;;
64085;SDS011;50333;47.436;21.390;2022-07-09T00:48:22;1.08;;;1.00;;
64085;SDS011;50333;47.436;21.390;2022-07-09T00:50:50;2.70;;;1.10;;
64085;SDS011;50333;47.436;21.390;2022-07-09T00:53:19;2.25;;;1.10;;
64085;SDS011;50333;47.436;21.390;2022-07-09T00:55:51;1.37;;;1.00;;
64085;SDS011;50333;47.436;21.390;2022-07-09T00:58:21;1.30;;;1.20;;
64085;SDS011;50333;47.436;21.390;2022-07-09T01:00:49;1.25;;;1.00;;
64085;SDS011;50333;47.436;21.390;2022-07-09T01:03:17;1.40;;;0.90;;
64085;SDS011;50333;47.436;21.390;2022-07-09T01:05:45;3.15;;;1.10;;
64085;SDS011;50333;47.436;21.390;2022-07-09T01:08:13;1.08;;;0.90;;
64085;SDS011;50333;47.436;21.390;2022-07-09T01:10:41;0.98;;;0.98;;
64085;SDS011;50333;47.436;21.390;2022-07-09T01:13:09;1.20;;;1.10;;
64085;SDS011;50333;47.436;21.390;2022-07-09T01:15:38;1.85;;;1.00;;
64085;SDS011;50333;47.436;21.390;2022-07-09T01:18:09;1.33;;;1.23;;
64085;SDS011;50333;47.436;21.390;2022-07-09T01:20:38;3.50;;;1.35;;
64085;SDS011;50333;47.436;21.390;2022-07-09T01:23:07;3.00;;;1.20;;
64085;SDS011;50333;47.436;21.390;2022-07-09T01:25:38;6.05;;;1.30;;
64085;SDS011;50333;47.436;21.390;2022-07-09T01:28:08;2.10;;;1.50;;
64085;SDS011;50333;47.436;21.390;2022-07-09T01:30:38;1.27;;;1.25;;
64085;SDS011;50333;47.436;21.390;2022-07-09T01:33:07;2.37;;;1.42;;
64085;SDS011;50333;47.436;21.390;2022-07-09T01:35:35;1.50;;;1.40;;
64085;SDS011;50333;47.436;21.390;2022-07-09T01:38:02;2.47;;;1.58;;
64085;SDS011;50333;47.436;21.390;2022-07-09T01:40:30;9.02;;;2.90;;
64085;SDS011;50333;47.436;21.390;2022-07-09T01:42:58;2.15;;;1.70;;
64085;SDS011;50333;47.436;21.390;2022-07-09T01:45:26;6.25;;;1.65;;
64085;SDS011;50333;47.436;21.390;2022-07-09T01:47:54;1.95;;;1.40;;
64085;SDS011;50333;47.436;21.390;2022-07-09T01:50:22;2.20;;;1.75;;
64085;SDS011;50333;47.436;21.390;2022-07-09T01:52:50;4.10;;;1.60;;
64085;SDS011;50333;47.436;21.390;2022-07-09T01:55:18;2.78;;;1.90;;
64085;SDS011;50333;47.436;21.390;2022-07-09T01:57:46;2.42;;;1.90;;
64085;SDS011;50333;47.436;21.390;2022-07-09T02:00:14;4.30;;;1.75;;
64085;SDS011;50333;47.436;21.390;2022-07-09T02:02:42;2.05;;;1.77;;
64085;SDS011;50333;47.436;21.390;2022-07-09T02:05:10;2.35;;;1.77;;
64085;SDS011;50333;47.436;21.390;2022-07-09T02:07:38;1.83;;;1.67;;
64085;SDS011;50333;47.436;21.390;2022-07-09T02:10:07;2.72;;;1.60;;
64085;SDS011;50333;47.436;21.390;2022-07-09T02:12:35;6.97;;;1.60;;
64085;SDS011;50333;47.436;21.390;2022-07-09T02:15:03;2.45;;;1.60;;
64085;SDS011;50333;47.436;21.390;2022-07-09T02:17:31;2.15;;;1.62;;
64085;SDS011;50333;47.436;21.390;2022-07-09T02:19:59;2.28;;;1.55;;
64085;SDS011;50333;47.436;21.390;2022-07-09T02:22:27;3.60;;;1.60;;
64085;SDS011;50333;47.436;21.390;2022-07-09T02:24:55;3.45;;;1.70;;
64085;SDS011;50333;47.436;21.390;2022-07-09T02:27:23;1.98;;;1.70;;
64085;SDS011;50333;47.436;21.390;2022-07-09T02:29:50;1.92;;;1.55;;
64085;SDS011;50333;47.436;21.390;2022-07-09T02:32:18;2.78;;;1.42;;
64085;SDS011;50333;47.436;21.390;2022-07-09T02:34:46;2.03;;;1.45;;
64085;SDS011;50333;47.436;21.390;2022-07-09T02:37:14;1.58;;;1.48;;
64085;SDS011;50333;47.436;21.390;2022-07-09T02:39:42;3.17;;;1.48;;
64085;SDS011;50333;47.436;21.390;2022-07-09T02:42:10;2.50;;;1.55;;
64085;SDS011;50333;47.436;21.390;2022-07-09T02:44:37;2.12;;;1.27;;
64085;SDS011;50333;47.436;21.390;2022-07-09T02:47:05;2.08;;;1.77;;
64085;SDS011;50333;47.436;21.390;2022-07-09T02:49:33;2.75;;;1.35;;
64085;SDS011;50333;47.436;21.390;2022-07-09T02:52:01;5.15;;;1.30;;
64085;SDS011;50333;47.436;21.390;2022-07-09T02:54:29;3.53;;;1.48;;
64085;SDS011;50333;47.436;21.390;2022-07-09T02:56:57;2.70;;;1.73;;
64085;SDS011;50333;47.436;21.390;2022-07-09T02:59:25;1.67;;;1.58;;
64085;SDS011;50333;47.436;21.390;2022-07-09T03:01:53;3.37;;;1.50;;
64085;SDS011;50333;47.436;21.390;2022-07-09T03:04:21;1.60;;;1.50;;
64085;SDS011;50333;47.436;21.390;2022-07-09T03:06:49;4.22;;;1.70;;
64085;SDS011;50333;47.436;21.390;2022-07-09T03:09:17;4.43;;;1.48;;
64085;SDS011;50333;47.436;21.390;2022-07-09T03:11:44;1.30;;;1.20;;
64085;SDS011;50333;47.436;21.390;2022-07-09T03:14:12;1.58;;;1.48;;
64085;SDS011;50333;47.436;21.390;2022-07-09T03:16:40;4.78;;;1.77;;
64085;SDS011;50333;47.436;21.390;2022-07-09T03:19:08;3.05;;;1.70;;
64085;SDS011;50333;47.436;21.390;2022-07-09T03:21:35;1.48;;;1.37;;
64085;SDS011;50333;47.436;21.390;2022-07-09T03:24:03;3.95;;;1.60;;
64085;SDS011;50333;47.436;21.390;2022-07-09T03:26:31;1.85;;;1.60;;
64085;SDS011;50333;47.436;21.390;2022-07-09T03:28:59;2.85;;;1.40;;
64085;SDS011;50333;47.436;21.390;2022-07-09T03:31:27;7.03;;;1.77;;
64085;SDS011;50333;47.436;21.390;2022-07-09T03:33:55;5.07;;;1.52;;
64085;SDS011;50333;47.436;21.390;2022-07-09T03:36:22;5.40;;;1.35;;
64085;SDS011;50333;47.436;21.390;2022-07-09T03:38:50;2.45;;;1.30;;
64085;SDS011;50333;47.436;21.390;2022-07-09T03:41:18;1.75;;;1.40;;
64085;SDS011;50333;47.436;21.390;2022-07-09T03:43:46;1.98;;;1.40;;
64085;SDS011;50333;47.436;21.390;2022-07-09T03:46:14;2.72;;;1.45;;
64085;SDS011;50333;47.436;21.390;2022-07-09T03:48:42;1.50;;;1.40;;
64085;SDS011;50333;47.436;21.390;2022-07-09T03:51:10;2.33;;;1.50;;
64085;SDS011;50333;47.436;21.390;2022-07-09T03:53:38;2.33;;;1.48;;
64085;SDS011;50333;47.436;21.390;2022-07-09T03:56:05;3.75;;;1.20;;
64085;SDS011;50333;47.436;21.390;2022-07-09T03:58:34;4.15;;;1.48;;
64085;SDS011;50333;47.436;21.390;2022-07-09T04:01:02;1.70;;;1.30;;
64085;SDS011;50333;47.436;21.390;2022-07-09T04:03:31;3.12;;;1.48;;
64085;SDS011;50333;47.436;21.390;2022-07-09T04:05:58;2.33;;;1.40;;
64085;SDS011;50333;47.436;21.390;2022-07-09T04:08:26;2.45;;;1.10;;
64085;SDS011;50333;47.436;21.390;2022-07-09T04:10:54;7.65;;;1.40;;
64085;SDS011;50333;47.436;21.390;2022-07-09T04:13:22;3.37;;;1.73;;
64085;SDS011;50333;47.436;21.390;2022-07-09T04:15:49;2.85;;;1.40;;
64085;SDS011;50333;47.436;21.390;2022-07-09T04:18:18;1.58;;;1.20;;
64085;SDS011;50333;47.436;21.390;2022-07-09T04:20:45;2.10;;;1.20;;
64085;SDS011;50333;47.436;21.390;2022-07-09T04:23:13;4.75;;;1.85;;
64085;SDS011;50333;47.436;21.390;2022-07-09T04:25:41;1.30;;;1.20;;
64085;SDS011;50333;47.436;21.390;2022-07-09T04:28:09;1.48;;;1.27;;
64085;SDS011;50333;47.436;21.390;2022-07-09T04:30:37;1.80;;;1.15;;
64085;SDS011;50333;47.436;21.390;2022-07-09T04:33:05;1.52;;;1.30;;
64085;SDS011;50333;47.436;21.390;2022-07-09T04:35:32;1.27;;;1.10;;
64085;SDS011;50333;47.436;21.390;2022-07-09T04:38:02;2.65;;;1.12;;
64085;SDS011;50333;47.436;21.390;2022-07-09T04:40:31;9.27;;;1.40;;
64085;SDS011;50333;47.436;21.390;2022-07-09T04:42:58;1.30;;;1.20;;
64085;SDS011;50333;47.436;21.390;2022-07-09T04:45:26;1.52;;;1.25;;
64085;SDS011;50333;47.436;21.390;2022-07-09T04:48:00;1.20;;;1.10;;
64085;SDS011;50333;47.436;21.390;2022-07-09T04:50:28;2.03;;;1.27;;
64085;SDS011;50333;47.436;21.390;2022-07-09T04:52:56;6.90;;;1.23;;
64085;SDS011;50333;47.436;21.390;2022-07-09T04:55:24;3.45;;;1.30;;
64085;SDS011;50333;47.436;21.390;2022-07-09T04:57:52;3.00;;;1.17;;
64085;SDS011;50333;47.436;21.390;2022-07-09T05:00:20;1.55;;;1.30;;
64085;SDS011;50333;47.436;21.390;2022-07-09T05:02:47;7.50;;;1.12;;
64085;SDS011;50333;47.436;21.390;2022-07-09T05:05:15;1.92;;;1.33;;
64085;SDS011;50333;47.436;21.390;2022-07-09T05:07:43;1.05;;;1.00;;
64085;SDS011;50333;47.436;21.390;2022-07-09T05:10:11;2.70;;;0.90;;
64085;SDS011;50333;47.436;21.390;2022-07-09T05:12:39;0.95;;;0.80;;
64085;SDS011;50333;47.436;21.390;2022-07-09T05:15:08;2.33;;;0.90;;
64085;SDS011;50333;47.436;21.390;2022-07-09T05:17:37;0.90;;;0.90;;
64085;SDS011;50333;47.436;21.390;2022-07-09T05:20:06;1.42;;;1.00;;
64085;SDS011;50333;47.436;21.390;2022-07-09T05:22:36;2.65;;;1.10;;
64085;SDS011;50333;47.436;21.390;2022-07-09T05:25:05;2.58;;;0.90;;
64085;SDS011;50333;47.436;21.390;2022-07-09T05:27:40;3.35;;;1.20;;
64085;SDS011;50333;47.436;21.390;2022-07-09T05:30:12;4.72;;;1.10;;
64085;SDS011;50333;47.436;21.390;2022-07-09T05:32:46;2.92;;;1.17;;
64085;SDS011;50333;47.436;21.390;2022-07-09T05:35:14;7.47;;;1.35;;
64085;SDS011;50333;47.436;21.390;2022-07-09T05:37:42;1.20;;;1.00;;
64085;SDS011;50333;47.436;21.390;2022-07-09T05:40:11;5.25;;;1.12;;
64085;SDS011;50333;47.436;21.390;2022-07-09T05:42:40;4.72;;;0.95;;
64085;SDS011;50333;47.436;21.390;2022-07-09T05:45:07;2.17;;;1.12;;
64085;SDS011;50333;47.436;21.390;2022-07-09T05:47:36;2.58;;;1.25;;
64085;SDS011;50333;47.436;21.390;2022-07-09T05:50:04;4.95;;;1.20;;
64085;SDS011;50333;47.436;21.390;2022-07-09T05:52:32;3.40;;;1.70;;
64085;SDS011;50333;47.436;21.390;2022-07-09T05:55:00;5.75;;;1.55;;
64085;SDS011;50333;47.436;21.390;2022-07-09T05:57:35;0.85;;;0.85;;
64085;SDS011;50333;47.436;21.390;2022-07-09T06:00:03;2.37;;;1.20;;
64085;SDS011;50333;47.436;21.390;2022-07-09T06:02:33;4.68;;;1.15;;
64085;SDS011;50333;47.436;21.390;2022-07-09T06:05:00;6.80;;;1.23;;
64085;SDS011;50333;47.436;21.390;2022-07-09T06:07:28;1.10;;;1.00;;
64085;SDS011;50333;47.436;21.390;2022-07-09T06:09:57;2.97;;;1.02;;
64085;SDS011;50333;47.436;21.390;2022-07-09T06:12:25;3.22;;;1.00;;
64085;SDS011;50333;47.436;21.390;2022-07-09T06:14:52;5.12;;;1.20;;
64085;SDS011;50333;47.436;21.390;2022-07-09T06:17:20;1.23;;;1.10;;
64085;SDS011;50333;47.436;21.390;2022-07-09T06:19:48;1.37;;;1.00;;
64085;SDS011;50333;47.436;21.390;2022-07-09T06:22:16;1.10;;;1.02;;
64085;SDS011;50333;47.436;21.390;2022-07-09T06:24:44;2.00;;;1.02;;
64085;SDS011;50333;47.436;21.390;2022-07-09T06:27:11;2.30;;;1.10;;
64085;SDS011;50333;47.436;21.390;2022-07-09T06:29:39;1.95;;;1.23;;
64085;SDS011;50333;47.436;21.390;2022-07-09T06:32:07;1.77;;;0.90;;
64085;SDS011;50333;47.436;21.390;2022-07-09T06:34:35;5.32;;;1.05;;
64085;SDS011;50333;47.436;21.390;2022-07-09T06:37:03;1.65;;;1.08;;
64085;SDS011;50333;47.436;21.390;2022-07-09T06:39:31;6.05;;;1.55;;
64085;SDS011;50333;47.436;21.390;2022-07-09T06:42:16;5.93;;;1.20;;
64085;SDS011;50333;47.436;21.390;2022-07-09T06:44:45;1.95;;;1.02;;
64085;SDS011;50333;47.436;21.390;2022-07-09T06:47:12;2.70;;;1.20;;
64085;SDS011;50333;47.436;21.390;2022-07-09T06:49:40;4.12;;;1.10;;
64085;SDS011;50333;47.436;21.390;2022-07-09T06:52:08;5.50;;;1.20;;
64085;SDS011;50333;47.436;21.390;2022-07-09T06:54:36;9.00;;;1.00;;
64085;SDS011;50333;47.436;21.390;2022-07-09T06:57:04;2.37;;;1.12;;
64085;SDS011;50333;47.436;21.390;2022-07-09T06:59:34;1.48;;;1.15;;
64085;SDS011;50333;47.436;21.390;2022-07-09T07:02:01;1.73;;;1.17;;
64085;SDS011;50333;47.436;21.390;2022-07-09T07:04:29;1.33;;;1.05;;
64085;SDS011;50333;47.436;21.390;2022-07-09T07:06:57;4.85;;;1.00;;
64085;SDS011;50333;47.436;21.390;2022-07-09T07:09:25;2.05;;;1.10;;
64085;SDS011;50333;47.436;21.390;2022-07-09T07:11:53;3.40;;;1.20;;
64085;SDS011;50333;47.436;21.390;2022-07-09T07:14:21;2.45;;;1.00;;
64085;SDS011;50333;47.436;21.390;2022-07-09T07:16:48;1.30;;;1.10;;
64085;SDS011;50333;47.436;21.390;2022-07-09T07:19:16;0.80;;;0.80;;
64085;SDS011;50333;47.436;21.390;2022-07-09T07:21:44;8.18;;;1.20;;
64085;SDS011;50333;47.436;21.390;2022-07-09T07:24:12;2.15;;;1.50;;
64085;SDS011;50333;47.436;21.390;2022-07-09T07:26:40;4.68;;;1.20;;
64085;SDS011;50333;47.436;21.390;2022-07-09T07:29:08;4.37;;;1.10;;
64085;SDS011;50333;47.436;21.390;2022-07-09T07:31:39;1.45;;;1.15;;
64085;SDS011;50333;47.436;21.390;2022-07-09T07:34:06;7.20;;;1.52;;
64085;SDS011;50333;47.436;21.390;2022-07-09T07:36:35;3.42;;;1.40;;
64085;SDS011;50333;47.436;21.390;2022-07-09T07:39:03;1.62;;;1.00;;
64085;SDS011;50333;47.436;21.390;2022-07-09T07:41:31;3.17;;;1.20;;
64085;SDS011;50333;47.436;21.390;2022-07-09T07:43:59;4.57;;;0.95;;
64085;SDS011;50333;47.436;21.390;2022-07-09T07:46:27;3.55;;;1.35;;
64085;SDS011;50333;47.436;21.390;2022-07-09T07:48:55;8.73;;;1.02;;
64085;SDS011;50333;47.436;21.390;2022-07-09T07:51:23;1.25;;;1.00;;
64085;SDS011;50333;47.436;21.390;2022-07-09T07:53:52;2.33;;;0.80;;
64085;SDS011;50333;47.436;21.390;2022-07-09T07:56:19;6.78;;;1.00;;
64085;SDS011;50333;47.436;21.390;2022-07-09T07:58:47;2.62;;;0.98;;
64085;SDS011;50333;47.436;21.390;2022-07-09T08:01:15;3.55;;;0.90;;
64085;SDS011;50333;47.436;21.390;2022-07-09T08:03:43;2.70;;;1.08;;
64085;SDS011;50333;47.436;21.390;2022-07-09T08:06:11;0.80;;;0.80;;
64085;SDS011;50333;47.436;21.390;2022-07-09T08:08:39;1.27;;;1.00;;
64085;SDS011;50333;47.436;21.390;2022-07-09T08:11:07;1.42;;;0.98;;
64085;SDS011;50333;47.436;21.390;2022-07-09T08:13:34;0.80;;;0.80;;
64085;SDS011;50333;47.436;21.390;2022-07-09T08:16:02;0.80;;;0.70;;
64085;SDS011;50333;47.436;21.390;2022-07-09T08:18:30;0.70;;;0.70;;
64085;SDS011;50333;47.436;21.390;2022-07-09T08:20:58;1.02;;;0.90;;
64085;SDS011;50333;47.436;21.390;2022-07-09T08:23:26;2.92;;;0.98;;
64085;SDS011;50333;47.436;21.390;2022-07-09T08:25:54;3.90;;;1.00;;
64085;SDS011;50333;47.436;21.390;2022-07-09T08:28:22;1.05;;;0.60;;
64085;SDS011;50333;47.436;21.390;2022-07-09T08:30:49;1.00;;;0.75;;
64085;SDS011;50333;47.436;21.390;2022-07-09T08:33:17;2.65;;;0.90;;
64085;SDS011;50333;47.436;21.390;2022-07-09T08:35:45;2.78;;;0.70;;
64085;SDS011;50333;47.436;21.390;2022-07-09T08:38:13;9.25;;;0.90;;
64085;SDS011;50333;47.436;21.390;2022-07-09T08:40:41;1.50;;;0.70;;
64085;SDS011;50333;47.436;21.390;2022-07-09T08:43:09;8.38;;;1.08;;
64085;SDS011;50333;47.436;21.390;2022-07-09T08:45:37;1.42;;;0.80;;
64085;SDS011;50333;47.436;21.390;2022-07-09T08:48:05;3.60;;;0.80;;
64085;SDS011;50333;47.436;21.390;2022-07-09T08:50:34;2.83;;;0.98;;
64085;SDS011;50333;47.436;21.390;2022-07-09T08:53:03;1.42;;;1.02;;
64085;SDS011;50333;47.436;21.390;2022-07-09T08:55:32;1.37;;;0.60;;
64085;SDS011;50333;47.436;21.390;2022-07-09T08:58:00;2.22;;;0.88;;
64085;SDS011;50333;47.436;21.390;2022-07-09T09:00:28;4.60;;;0.80;;
64085;SDS011;50333;47.436;21.390;2022-07-09T09:02:56;4.68;;;0.90;;
64085;SDS011;50333;47.436;21.390;2022-07-09T09:05:23;2.15;;;0.70;;
64085;SDS011;50333;47.436;21.390;2022-07-09T09:07:51;0.70;;;0.68;;
64085;SDS011;50333;47.436;21.390;2022-07-09T09:10:26;0.70;;;0.70;;
64085;SDS011;50333;47.436;21.390;2022-07-09T09:12:57;2.05;;;0.70;;
64085;SDS011;50333;47.436;21.390;2022-07-09T09:15:30;7.07;;;1.00;;
64085;SDS011;50333;47.436;21.390;2022-07-09T09:17:57;1.60;;;0.77;;
64085;SDS011;50333;47.436;21.390;2022-07-09T09:20:25;3.33;;;0.85;;
64085;SDS011;50333;47.436;21.390;2022-07-09T09:22:54;3.40;;;0.90;;
64085;SDS011;50333;47.436;21.390;2022-07-09T09:25:27;0.88;;;0.70;;
64085;SDS011;50333;47.436;21.390;2022-07-09T09:27:58;1.10;;;0.70;;
64085;SDS011;50333;47.436;21.390;2022-07-09T09:30:28;4.53;;;0.70;;
64085;SDS011;50333;47.436;21.390;2022-07-09T09:32:58;3.60;;;0.82;;
64085;SDS011;50333;47.436;21.390;2022-07-09T09:35:27;5.32;;;0.90;;
64085;SDS011;50333;47.436;21.390;2022-07-09T09:37:56;3.80;;;0.68;;
64085;SDS011;50333;47.436;21.390;2022-07-09T09:40:25;0.70;;;0.70;;
64085;SDS011;50333;47.436;21.390;2022-07-09T09:42:53;4.50;;;0.98;;
64085;SDS011;50333;47.436;21.390;2022-07-09T09:45:24;3.50;;;1.00;;
64085;SDS011;50333;47.436;21.390;2022-07-09T09:47:52;0.75;;;0.70;;
64085;SDS011;50333;47.436;21.390;2022-07-09T09:50:21;1.87;;;0.85;;
64085;SDS011;50333;47.436;21.390;2022-07-09T09:52:51;2.10;;;0.97;;
64085;SDS011;50333;47.436;21.390;2022-07-09T09:55:21;1.98;;;0.82;;
64085;SDS011;50333;47.436;21.390;2022-07-09T09:57:50;2.12;;;0.80;;
64085;SDS011;50333;47.436;21.390;2022-07-09T10:00:19;3.28;;;1.17;;
64085;SDS011;50333;47.436;21.390;2022-07-09T10:02:47;3.20;;;0.80;;
64085;SDS011;50333;47.436;21.390;2022-07-09T10:05:15;3.47;;;0.90;;
64085;SDS011;50333;47.436;21.390;2022-07-09T10:07:44;3.22;;;0.80;;
64085;SDS011;50333;47.436;21.390;2022-07-09T10:10:19;1.90;;;0.90;;
64085;SDS011;50333;47.436;21.390;2022-07-09T10:12:47;0.62;;;0.60;;
64085;SDS011;50333;47.436;21.390;2022-07-09T10:17:49;1.95;;;0.80;;
64085;SDS011;50333;47.436;21.390;2022-07-09T10:20:17;1.37;;;0.70;;
64085;SDS011;50333;47.436;21.390;2022-07-09T10:22:45;6.30;;;0.90;;
64085;SDS011;50333;47.436;21.390;2022-07-09T10:25:22;3.42;;;0.80;;
64085;SDS011;50333;47.436;21.390;2022-07-09T10:27:55;1.27;;;0.82;;
64085;SDS011;50333;47.436;21.390;2022-07-09T10:30:30;2.53;;;1.05;;
64085;SDS011;50333;47.436;21.390;2022-07-09T10:35:29;2.60;;;0.95;;
64085;SDS011;50333;47.436;21.390;2022-07-09T10:37:57;5.95;;;1.10;;
64085;SDS011;50333;47.436;21.390;2022-07-09T10:40:25;1.73;;;0.80;;
64085;SDS011;50333;47.436;21.390;2022-07-09T10:42:58;0.50;;;0.50;;
64085;SDS011;50333;47.436;21.390;2022-07-09T10:45:28;4.60;;;0.85;;
64085;SDS011;50333;47.436;21.390;2022-07-09T10:48:03;1.85;;;0.80;;
64085;SDS011;50333;47.436;21.390;2022-07-09T10:50:33;1.25;;;1.15;;
64085;SDS011;50333;47.436;21.390;2022-07-09T10:53:05;2.47;;;0.90;;
64085;SDS011;50333;47.436;21.390;2022-07-09T10:55:34;1.40;;;0.80;;
64085;SDS011;50333;47.436;21.390;2022-07-09T10:58:02;2.40;;;0.70;;
64085;SDS011;50333;47.436;21.390;2022-07-09T11:00:35;0.70;;;0.60;;
64085;SDS011;50333;47.436;21.390;2022-07-09T11:03:03;4.45;;;0.70;;
64085;SDS011;50333;47.436;21.390;2022-07-09T11:05:34;3.45;;;0.60;;
64085;SDS011;50333;47.436;21.390;2022-07-09T11:08:11;3.15;;;0.75;;
64085;SDS011;50333;47.436;21.390;2022-07-09T11:10:39;1.85;;;0.70;;
64085;SDS011;50333;47.436;21.390;2022-07-09T11:13:12;3.00;;;0.80;;
64085;SDS011;50333;47.436;21.390;2022-07-09T11:15:40;5.68;;;0.90;;
64085;SDS011;50333;47.436;21.390;2022-07-09T11:18:09;1.37;;;0.90;;
64085;SDS011;50333;47.436;21.390;2022-07-09T11:20:45;1.80;;;0.70;;
64085;SDS011;50333;47.436;21.390;2022-07-09T11:23:16;0.93;;;0.90;;
64085;SDS011;50333;47.436;21.390;2022-07-09T11:28:20;3.75;;;1.00;;
64085;SDS011;50333;47.436;21.390;2022-07-09T11:30:58;2.40;;;0.70;;
64085;SDS011;50333;47.436;21.390;2022-07-09T11:33:26;0.70;;;0.70;;
64085;SDS011;50333;47.436;21.390;2022-07-09T11:35:54;2.87;;;0.70;;
64085;SDS011;50333;47.436;21.390;2022-07-09T11:38:22;1.62;;;0.82;;
64085;SDS011;50333;47.436;21.390;2022-07-09T11:40:58;1.67;;;0.80;;
64085;SDS011;50333;47.436;21.390;2022-07-09T11:43:27;2.60;;;0.80;;
64085;SDS011;50333;47.436;21.390;2022-07-09T11:45:58;2.12;;;0.93;;
64085;SDS011;50333;47.436;21.390;2022-07-09T11:48:25;0.93;;;0.93;;
64085;SDS011;50333;47.436;21.390;2022-07-09T11:50:53;0.77;;;0.70;;
64085;SDS011;50333;47.436;21.390;2022-07-09T11:53:21;1.48;;;0.70;;
64085;SDS011;50333;47.436;21.390;2022-07-09T11:56:03;1.85;;;0.80;;
64085;SDS011;50333;47.436;21.390;2022-07-09T11:58:34;0.60;;;0.60;;
64085;SDS011;50333;47.436;21.390;2022-07-09T12:01:02;1.45;;;0.70;;
64085;SDS011;50333;47.436;21.390;2022-07-09T12:03:38;1.33;;;0.70;;
64085;SDS011;50333;47.436;21.390;2022-07-09T12:06:17;6.95;;;1.58;;
64085;SDS011;50333;47.436;21.390;2022-07-09T12:08:45;2.15;;;0.77;;
64085;SDS011;50333;47.436;21.390;2022-07-09T12:11:13;3.30;;;0.90;;
64085;SDS011;50333;47.436;21.390;2022-07-09T12:13:41;0.65;;;0.65;;
64085;SDS011;50333;47.436;21.390;2022-07-09T12:16:09;1.33;;;0.80;;
64085;SDS011;50333;47.436;21.390;2022-07-09T12:18:36;5.30;;;0.90;;
64085;SDS011;50333;47.436;21.390;2022-07-09T12:21:05;1.77;;;0.90;;
64085;SDS011;50333;47.436;21.390;2022-07-09T12:23:33;1.30;;;0.90;;
64085;SDS011;50333;47.436;21.390;2022-07-09T12:26:01;7.35;;;0.88;;
64085;SDS011;50333;47.436;21.390;2022-07-09T12:28:28;1.05;;;0.80;;
64085;SDS011;50333;47.436;21.390;2022-07-09T12:30:56;2.95;;;0.80;;
64085;SDS011;50333;47.436;21.390;2022-07-09T12:33:24;4.07;;;0.70;;
64085;SDS011;50333;47.436;21.390;2022-07-09T12:35:52;4.97;;;0.90;;
64085;SDS011;50333;47.436;21.390;2022-07-09T12:38:20;0.95;;;0.70;;
64085;SDS011;50333;47.436;21.390;2022-07-09T12:40:48;0.82;;;0.60;;
64085;SDS011;50333;47.436;21.390;2022-07-09T12:43:15;1.92;;;0.80;;
64085;SDS011;50333;47.436;21.390;2022-07-09T12:45:43;4.00;;;0.90;;
64085;SDS011;50333;47.436;21.390;2022-07-09T12:48:11;2.28;;;0.93;;
64085;SDS011;50333;47.436;21.390;2022-07-09T12:50:39;1.58;;;1.20;;
64085;SDS011;50333;47.436;21.390;2022-07-09T12:53:07;0.68;;;0.68;;
64085;SDS011;50333;47.436;21.390;2022-07-09T12:55:35;3.42;;;0.80;;
64085;SDS011;50333;47.436;21.390;2022-07-09T12:58:23;1.08;;;0.90;;
64085;SDS011;50333;47.436;21.390;2022-07-09T13:00:50;1.10;;;0.80;;
64085;SDS011;50333;47.436;21.390;2022-07-09T13:03:18;1.62;;;0.88;;
64085;SDS011;50333;47.436;21.390;2022-07-09T13:05:46;2.50;;;0.90;;
64085;SDS011;50333;47.436;21.390;2022-07-09T13:08:14;1.95;;;0.80;;
64085;SDS011;50333;47.436;21.390;2022-07-09T13:10:48;2.40;;;0.90;;
64085;SDS011;50333;47.436;21.390;2022-07-09T13:13:16;3.05;;;0.80;;
64085;SDS011;50333;47.436;21.390;2022-07-09T13:15:44;3.08;;;1.00;;
64085;SDS011;50333;47.436;21.390;2022-07-09T13:18:13;1.17;;;0.80;;
64085;SDS011;50333;47.436;21.390;2022-07-09T13:20:42;3.07;;;1.37;;
64085;SDS011;50333;47.436;21.390;2022-07-09T13:23:13;3.97;;;0.70;;
64085;SDS011;50333;47.436;21.390;2022-07-09T13:25:41;0.85;;;0.70;;
64085;SDS011;50333;47.436;21.390;2022-07-09T13:28:09;2.80;;;0.93;;
64085;SDS011;50333;47.436;21.390;2022-07-09T13:30:37;0.95;;;0.80;;
64085;SDS011;50333;47.436;21.390;2022-07-09T13:33:05;2.08;;;0.80;;
64085;SDS011;50333;47.436;21.390;2022-07-09T13:35:33;1.33;;;1.05;;
64085;SDS011;50333;47.436;21.390;2022-07-09T13:38:02;1.35;;;0.98;;
64085;SDS011;50333;47.436;21.390;2022-07-09T13:40:30;2.12;;;1.10;;
64085;SDS011;50333;47.436;21.390;2022-07-09T13:42:57;2.05;;;0.88;;
64085;SDS011;50333;47.436;21.390;2022-07-09T13:45:25;1.77;;;0.90;;
64085;SDS011;50333;47.436;21.390;2022-07-09T13:47:55;5.30;;;1.60;;
64085;SDS011;50333;47.436;21.390;2022-07-09T13:50:23;4.30;;;1.15;;
64085;SDS011;50333;47.436;21.390;2022-07-09T13:52:51;6.85;;;1.23;;
64085;SDS011;50333;47.436;21.390;2022-07-09T13:55:18;1.75;;;1.10;;
64085;SDS011;50333;47.436;21.390;2022-07-09T13:57:46;5.18;;;1.15;;
64085;SDS011;50333;47.436;21.390;2022-07-09T14:00:14;2.50;;;1.00;;
64085;SDS011;50333;47.436;21.390;2022-07-09T14:02:43;0.80;;;0.80;;
64085;SDS011;50333;47.436;21.390;2022-07-09T14:05:11;1.08;;;0.90;;
64085;SDS011;50333;47.436;21.390;2022-07-09T14:07:38;30.62;;;3.25;;
64085;SDS011;50333;47.436;21.390;2022-07-09T14:10:07;32.00;;;3.22;;
64085;SDS011;50333;47.436;21.390;2022-07-09T14:12:35;3.45;;;1.00;;
64085;SDS011;50333;47.436;21.390;2022-07-09T14:15:03;6.20;;;1.30;;
64085;SDS011;50333;47.436;21.390;2022-07-09T14:17:32;7.68;;;1.58;;
64085;SDS011;50333;47.436;21.390;2022-07-09T14:19:59;4.43;;;1.50;;
64085;SDS011;50333;47.436;21.390;2022-07-09T14:22:28;7.37;;;1.40;;
64085;SDS011;50333;47.436;21.390;2022-07-09T14:24:56;8.70;;;1.85;;
64085;SDS011;50333;47.436;21.390;2022-07-09T14:27:26;5.70;;;1.10;;
64085;SDS011;50333;47.436;21.390;2022-07-09T14:29:54;2.58;;;1.00;;
64085;SDS011;50333;47.436;21.390;2022-07-09T14:32:22;1.67;;;0.90;;
64085;SDS011;50333;47.436;21.390;2022-07-09T14:34:50;3.83;;;1.60;;
64085;SDS011;50333;47.436;21.390;2022-07-09T14:37:17;2.28;;;0.98;;
64085;SDS011;50333;47.436;21.390;2022-07-09T14:39:45;1.80;;;0.90;;
64085;SDS011;50333;47.436;21.390;2022-07-09T14:42:13;2.35;;;0.90;;
64085;SDS011;50333;47.436;21.390;2022-07-09T14:44:41;1.10;;;0.90;;
64085;SDS011;50333;47.436;21.390;2022-07-09T14:47:09;4.30;;;0.95;;
64085;SDS011;50333;47.436;21.390;2022-07-09T14:49:36;2.15;;;1.00;;